Air Navigation Services of Czech Republic
Airport: LKBC Updated:  21.01.2020 23:00:27  UTC
 METAR LKBC 21.01. 23:00 ...
METAR LKBC 212300Z AUTO 18004KT 140V220 0550 FZFG BKN001 OVC004 M04/M04 Q1036=